createdAt,value
2017-08-22T00:00:35.652Z,28.00
2017-08-22T00:03:03.262Z,28.10
2017-08-22T00:05:30.847Z,28.00
2017-08-22T00:07:58.468Z,27.90
2017-08-22T00:10:26.034Z,27.90
2017-08-22T00:12:53.622Z,27.90
2017-08-22T00:15:21.243Z,27.90
2017-08-22T00:17:48.814Z,28.00
2017-08-22T00:20:16.419Z,27.90
2017-08-22T00:22:44.031Z,27.90
2017-08-22T00:25:11.623Z,27.80
2017-08-22T00:27:39.246Z,27.80
2017-08-22T00:30:06.875Z,27.80
2017-08-22T00:32:34.470Z,28.00
2017-08-22T00:35:02.074Z,28.10
2017-08-22T00:37:29.685Z,28.10
2017-08-22T00:39:57.259Z,28.10
2017-08-22T00:42:24.859Z,28.00
2017-08-22T00:44:52.462Z,27.90
2017-08-22T00:47:20.134Z,27.90
2017-08-22T00:49:47.758Z,27.80
2017-08-22T00:52:15.411Z,28.00
2017-08-22T00:54:43.007Z,28.10
2017-08-22T00:57:10.618Z,28.00
2017-08-22T00:59:38.265Z,28.00
2017-08-22T01:02:06.102Z,28.00
2017-08-22T01:04:33.711Z,27.90
2017-08-22T01:07:01.410Z,28.00
2017-08-22T01:09:29.028Z,28.00
2017-08-22T01:11:56.610Z,28.10
2017-08-22T01:14:24.253Z,28.00
2017-08-22T01:16:51.845Z,28.10
2017-08-22T01:19:19.484Z,28.10
2017-08-22T01:21:47.167Z,28.00
2017-08-22T01:24:14.802Z,28.00
2017-08-22T01:26:42.438Z,28.00
2017-08-22T01:29:10.086Z,28.00
2017-08-22T01:31:37.759Z,28.10
2017-08-22T01:34:05.398Z,28.10
2017-08-22T01:36:33.092Z,28.10
2017-08-22T01:39:00.755Z,28.00
2017-08-22T01:41:28.389Z,28.10
2017-08-22T01:43:56.082Z,28.10
2017-08-22T01:46:23.670Z,28.10
2017-08-22T01:48:51.246Z,28.10
2017-08-22T01:51:18.870Z,28.10
2017-08-22T01:53:46.459Z,28.20
2017-08-22T01:56:14.059Z,28.30
2017-08-22T01:58:41.655Z,28.30
2017-08-22T02:01:09.250Z,28.30
2017-08-22T02:03:36.818Z,28.30
2017-08-22T02:06:04.418Z,28.40
2017-08-22T02:08:31.974Z,28.40
2017-08-22T02:10:59.558Z,28.50
2017-08-22T02:13:27.155Z,28.50
2017-08-22T02:15:54.771Z,28.40
2017-08-22T02:18:22.369Z,28.50
2017-08-22T02:20:49.968Z,28.60
2017-08-22T02:23:17.531Z,28.60
2017-08-22T02:25:45.092Z,28.60
2017-08-22T02:28:12.710Z,28.70
2017-08-22T02:30:40.307Z,28.80
2017-08-22T02:33:07.914Z,28.80
2017-08-22T02:35:35.532Z,28.80
2017-08-22T02:38:03.103Z,28.80
2017-08-22T02:40:31.132Z,28.90
2017-08-22T02:42:58.727Z,29.00
2017-08-22T02:45:26.315Z,29.10
2017-08-22T02:47:53.914Z,29.20
2017-08-22T02:50:21.506Z,29.30
2017-08-22T02:52:49.090Z,29.50
2017-08-22T02:55:16.659Z,29.70
2017-08-22T02:57:44.250Z,29.90
2017-08-22T03:00:11.850Z,30.00
2017-08-22T03:02:39.414Z,30.00
2017-08-22T03:05:07.041Z,30.00
2017-08-22T03:07:34.634Z,30.00
2017-08-22T03:10:02.206Z,30.00
2017-08-22T03:12:29.823Z,30.20
2017-08-22T03:14:57.419Z,30.20
2017-08-22T03:17:25.008Z,30.20
2017-08-22T03:19:52.638Z,30.20
2017-08-22T03:22:20.210Z,30.20
2017-08-22T03:24:47.782Z,30.30
2017-08-22T03:27:15.390Z,30.30
2017-08-22T03:29:42.983Z,30.20
2017-08-22T03:32:10.559Z,30.00
2017-08-22T03:34:38.146Z,30.00
2017-08-22T03:37:05.743Z,30.00
2017-08-22T03:39:33.346Z,29.90
2017-08-22T03:42:00.942Z,29.80
2017-08-22T03:44:28.526Z,29.70
2017-08-22T03:46:56.090Z,29.60
2017-08-22T03:49:23.702Z,29.40
2017-08-22T03:51:55.980Z,29.10
2017-08-22T03:54:23.590Z,29.10
2017-08-22T03:56:51.978Z,29.00
2017-08-22T03:59:19.572Z,28.90
2017-08-22T04:01:47.146Z,28.80
2017-08-22T04:04:14.739Z,28.80
2017-08-22T04:06:42.299Z,28.90
2017-08-22T04:09:11.618Z,28.90
2017-08-22T04:11:39.238Z,28.90
2017-08-22T04:14:06.815Z,28.90
2017-08-22T04:16:34.407Z,28.90
2017-08-22T04:19:02.030Z,29.00
2017-08-22T04:21:29.598Z,28.90
2017-08-22T04:23:57.159Z,28.90
2017-08-22T04:26:24.774Z,28.80
2017-08-22T04:28:52.349Z,28.80
2017-08-22T04:31:19.910Z,28.90
2017-08-22T04:33:47.506Z,28.90
2017-08-22T04:36:15.111Z,29.00
2017-08-22T04:38:42.707Z,29.00
2017-08-22T04:41:10.298Z,29.00
2017-08-22T04:43:37.882Z,29.10
2017-08-22T04:46:05.446Z,29.20
2017-08-22T04:48:33.250Z,29.10
2017-08-22T04:51:00.846Z,29.10
2017-08-22T04:53:29.142Z,29.20
2017-08-22T04:55:56.770Z,29.20
2017-08-22T04:58:24.330Z,29.30
2017-08-22T05:00:51.916Z,29.30
2017-08-22T05:03:20.026Z,29.40
2017-08-22T05:05:47.594Z,30.00
2017-08-22T05:08:15.932Z,29.50
2017-08-22T05:10:43.546Z,29.40
2017-08-22T05:13:11.113Z,29.50
2017-08-22T05:15:38.702Z,29.50
2017-08-22T05:18:06.294Z,29.50
2017-08-22T05:20:33.890Z,29.50
2017-08-22T05:23:01.482Z,29.60
2017-08-22T05:25:29.099Z,29.60
2017-08-22T05:27:56.692Z,29.60
2017-08-22T05:30:24.259Z,29.60
2017-08-22T05:32:51.853Z,29.80
2017-08-22T05:35:19.421Z,29.80
2017-08-22T05:37:46.987Z,29.80
2017-08-22T05:40:14.606Z,30.00
2017-08-22T05:42:42.166Z,30.10
2017-08-22T05:45:09.758Z,30.00
2017-08-22T05:47:38.295Z,30.00
2017-08-22T05:50:05.888Z,30.00
2017-08-22T05:52:33.466Z,30.00
2017-08-22T05:55:01.086Z,30.20
2017-08-22T05:57:28.687Z,30.30
2017-08-22T05:59:56.558Z,30.60
2017-08-22T06:02:24.158Z,30.50
2017-08-22T06:04:51.946Z,30.50
2017-08-22T06:07:20.420Z,30.60
2017-08-22T06:09:48.039Z,30.70
2017-08-22T06:12:15.620Z,30.70
2017-08-22T06:14:43.186Z,30.70
2017-08-22T06:17:10.798Z,31.00
2017-08-22T06:19:38.372Z,31.10
2017-08-22T06:22:05.938Z,30.90
2017-08-22T06:24:33.558Z,31.00
2017-08-22T06:27:01.149Z,31.00
2017-08-22T06:29:28.722Z,30.90
2017-08-22T06:31:56.306Z,30.80
2017-08-22T06:34:23.891Z,31.00
2017-08-22T06:36:51.490Z,31.00
2017-08-22T06:39:19.098Z,31.10
2017-08-22T06:41:46.683Z,30.90
2017-08-22T06:44:14.288Z,30.80
2017-08-22T06:46:41.902Z,30.80
2017-08-22T06:49:09.470Z,31.00
2017-08-22T06:51:37.630Z,31.00
2017-08-22T06:54:05.271Z,31.20
2017-08-22T06:56:33.247Z,31.10
2017-08-22T06:59:01.219Z,31.00
2017-08-22T07:01:30.238Z,31.20
2017-08-22T07:03:57.827Z,31.30
2017-08-22T07:06:26.190Z,31.40
2017-08-22T07:08:53.787Z,31.50
2017-08-22T07:11:21.386Z,31.20
2017-08-22T07:13:48.955Z,31.30
2017-08-22T07:16:17.058Z,32.00
2017-08-22T07:18:44.655Z,31.50
2017-08-22T07:21:12.959Z,31.60
2017-08-22T07:23:40.558Z,31.70
2017-08-22T07:26:08.874Z,31.90
2017-08-22T07:28:36.434Z,31.50
2017-08-22T07:31:04.866Z,32.10
2017-08-22T07:33:32.442Z,31.80
2017-08-22T07:36:00.747Z,32.30
2017-08-22T07:38:28.362Z,32.50
2017-08-22T07:40:55.934Z,32.60
2017-08-22T07:43:23.514Z,32.80
2017-08-22T07:45:51.313Z,32.80
2017-08-22T07:48:18.914Z,33.00
2017-08-22T07:50:46.508Z,33.10
2017-08-22T07:53:14.102Z,33.10
2017-08-22T07:55:41.683Z,33.40
2017-08-22T07:58:09.274Z,33.50
2017-08-22T08:00:36.895Z,33.40
2017-08-22T08:03:04.490Z,33.50
2017-08-22T08:05:32.082Z,33.50
